createdAt,value
2022-08-12T00:00:20.227Z,99.28
2022-08-12T00:03:26.063Z,103.22
2022-08-12T00:06:33.907Z,101.43
2022-08-12T00:09:39.685Z,101.30
2022-08-12T00:12:45.364Z,99.43
2022-08-12T00:15:52.175Z,101.55
2022-08-12T00:18:58.022Z,103.15
2022-08-12T00:22:05.222Z,99.18
2022-08-12T00:25:17.227Z,102.18
2022-08-12T00:28:23.574Z,102.40
2022-08-12T00:31:29.984Z,108.63
2022-08-12T00:34:35.706Z,102.07
2022-08-12T00:37:43.111Z,109.93
2022-08-12T00:40:49.943Z,109.53
2022-08-12T00:43:38.382Z,104.47
2022-08-12T00:46:36.870Z,101.88
2022-08-12T00:49:27.027Z,109.25
2022-08-12T00:52:15.040Z,111.05
2022-08-12T00:55:06.454Z,112.80
2022-08-12T00:57:55.086Z,107.38
2022-08-12T01:00:44.595Z,114.70
2022-08-12T01:03:50.037Z,113.25
2022-08-12T01:06:55.900Z,105.18
2022-08-12T01:10:05.250Z,106.55
2022-08-12T01:12:55.176Z,112.07
2022-08-12T01:16:07.550Z,113.15
2022-08-12T01:18:57.384Z,114.85
2022-08-12T01:22:09.260Z,114.43
2022-08-12T01:25:08.019Z,113.18
2022-08-12T01:28:00.307Z,115.45
2022-08-12T01:30:50.511Z,114.57
2022-08-12T01:33:42.233Z,115.47
2022-08-12T01:36:36.232Z,114.18
2022-08-12T01:39:31.372Z,113.47
2022-08-12T01:42:22.855Z,113.03
2022-08-12T01:45:12.374Z,113.30
2022-08-12T01:48:15.825Z,119.35
2022-08-12T01:51:10.719Z,118.00
2022-08-12T01:54:05.946Z,115.30
2022-08-12T01:57:04.166Z,116.82
2022-08-12T01:59:59.996Z,115.40
2022-08-12T02:02:54.771Z,120.72
2022-08-12T02:06:08.335Z,116.45
2022-08-12T02:09:18.330Z,119.70
2022-08-12T02:12:27.680Z,120.53
2022-08-12T02:15:28.504Z,115.63
2022-08-12T02:18:25.873Z,118.05
2022-08-12T02:21:26.653Z,117.60
2022-08-12T02:24:20.896Z,121.75
2022-08-12T02:27:14.053Z,116.30
2022-08-12T02:30:03.696Z,117.72
2022-08-12T02:32:56.395Z,115.57
2022-08-12T02:35:45.509Z,117.50
2022-08-12T02:38:33.971Z,122.68
2022-08-12T02:41:26.422Z,123.20
2022-08-12T02:44:18.267Z,122.97
2022-08-12T02:47:08.164Z,117.80
2022-08-12T02:50:21.936Z,118.07
2022-08-12T02:53:11.509Z,117.40
2022-08-12T02:56:02.685Z,121.60
2022-08-12T02:58:51.480Z,121.63
2022-08-12T03:01:48.021Z,130.13
2022-08-12T03:04:44.744Z,131.55
2022-08-12T03:07:59.312Z,124.15
2022-08-12T03:10:51.648Z,123.65
2022-08-12T03:13:43.269Z,123.88
2022-08-12T03:16:33.166Z,132.80
2022-08-12T03:19:22.394Z,132.90
2022-08-12T03:22:14.626Z,129.77
2022-08-12T03:25:05.301Z,135.18
2022-08-12T03:27:56.641Z,137.82
2022-08-12T03:30:46.051Z,130.70
2022-08-12T03:33:36.429Z,137.52
2022-08-12T03:36:26.418Z,137.80
2022-08-12T03:39:35.810Z,139.07
2022-08-12T03:42:33.013Z,141.32
2022-08-12T03:45:52.592Z,138.32
2022-08-12T03:48:59.495Z,138.65
2022-08-12T03:52:05.697Z,134.77
2022-08-12T03:55:11.447Z,141.85
2022-08-12T03:58:19.882Z,147.05
2022-08-12T04:01:08.667Z,139.98
2022-08-12T04:03:57.978Z,149.68
2022-08-12T04:06:46.333Z,140.95
2022-08-12T04:09:35.422Z,147.57
2022-08-12T04:12:45.935Z,145.90
2022-08-12T04:15:35.384Z,154.23
2022-08-12T04:18:23.634Z,146.38
2022-08-12T04:21:11.660Z,150.35
2022-08-12T04:24:00.684Z,143.85
2022-08-12T04:26:49.260Z,152.77
2022-08-12T04:30:17.097Z,149.52
2022-08-12T04:32:49.771Z,143.30
2022-08-12T04:35:38.313Z,145.55
2022-08-12T04:38:28.267Z,155.95
2022-08-12T04:41:18.993Z,151.45
2022-08-12T04:44:07.811Z,155.85
2022-08-12T04:46:55.911Z,153.93
2022-08-12T04:49:48.025Z,155.95
2022-08-12T04:52:36.273Z,158.27
2022-08-12T04:55:24.775Z,163.90
2022-08-12T04:58:15.112Z,162.93
2022-08-12T05:01:17.411Z,149.93
2022-08-12T05:04:06.600Z,154.68
2022-08-12T05:06:56.010Z,158.07
2022-08-12T05:09:59.154Z,170.13
2022-08-12T05:12:52.988Z,161.77
2022-08-12T05:16:04.666Z,165.80
2022-08-12T05:18:49.836Z,154.45
2022-08-12T05:21:38.480Z,159.90
2022-08-12T05:24:31.247Z,162.70
2022-08-12T05:27:19.437Z,167.38
2022-08-12T05:30:09.778Z,177.23
2022-08-12T05:33:00.237Z,150.27
2022-08-12T05:35:50.108Z,162.40
2022-08-12T05:38:55.884Z,164.68
2022-08-12T05:41:45.230Z,166.82
2022-08-12T05:44:33.248Z,158.50
2022-08-12T05:47:21.251Z,161.88
2022-08-12T05:50:25.555Z,156.38
2022-08-12T05:53:14.090Z,159.32
2022-08-12T05:56:02.107Z,159.10
2022-08-12T05:58:52.883Z,166.93
2022-08-12T06:02:09.458Z,157.07
2022-08-12T06:04:50.118Z,151.43
2022-08-12T06:08:01.200Z,154.38
2022-08-12T06:10:50.990Z,148.82
2022-08-12T06:13:52.797Z,150.60
2022-08-12T06:16:46.244Z,157.05
2022-08-12T06:20:28.090Z,152.15
2022-08-12T06:22:42.473Z,149.38
2022-08-12T06:25:30.771Z,153.90
2022-08-12T06:28:19.437Z,150.20
2022-08-12T06:31:25.347Z,153.95
2022-08-12T06:35:26.769Z,148.45
2022-08-12T06:37:25.360Z,138.88
2022-08-12T06:40:14.817Z,148.07
2022-08-12T06:43:02.190Z,141.60
2022-08-12T06:45:50.547Z,147.80
2022-08-12T06:48:38.726Z,142.70
2022-08-12T06:51:29.812Z,136.27
2022-08-12T06:54:27.096Z,130.57
2022-08-12T06:58:05.419Z,130.77
2022-08-12T07:00:32.511Z,120.10
2022-08-12T07:03:23.298Z,118.57
2022-08-12T07:06:13.650Z,109.10
2022-08-12T07:09:04.964Z,109.22
2022-08-12T07:11:53.027Z,105.72
2022-08-12T07:14:43.714Z,101.30
2022-08-12T07:17:37.551Z,95.93
2022-08-12T07:20:51.321Z,81.55
2022-08-12T07:23:39.370Z,77.93
2022-08-12T07:26:29.316Z,59.17
2022-08-12T07:29:17.356Z,44.15
2022-08-12T07:32:05.738Z,31.92
2022-08-12T07:34:54.518Z,27.20
2022-08-12T07:37:42.932Z,23.63
2022-08-12T07:40:31.003Z,20.10
2022-08-12T07:43:20.557Z,15.70
2022-08-12T07:46:11.498Z,12.68
2022-08-12T07:49:01.687Z,10.52
2022-08-12T07:51:49.720Z,10.57
2022-08-12T07:54:38.180Z,9.05
2022-08-12T07:57:26.299Z,9.25
2022-08-12T08:00:18.293Z,9.73
2022-08-12T08:03:08.638Z,10.52
2022-08-12T08:05:57.295Z,11.07
2022-08-12T08:08:45.342Z,11.13
2022-08-12T08:11:50.920Z,11.48
2022-08-12T08:14:40.531Z,12.43
2022-08-12T08:17:29.930Z,13.25
2022-08-12T08:20:28.331Z,12.80
2022-08-12T08:23:18.595Z,12.27
2022-08-12T08:26:07.190Z,12.52
2022-08-12T08:28:55.353Z,13.23
2022-08-12T08:31:46.505Z,12.15
2022-08-12T08:34:53.855Z,12.82
2022-08-12T08:37:43.523Z,13.10
2022-08-12T08:40:49.089Z,13.05
2022-08-12T08:43:44.059Z,12.75
2022-08-12T08:46:37.377Z,12.57
2022-08-12T08:49:25.975Z,12.80
2022-08-12T08:52:37.108Z,13.35
2022-08-12T08:55:33.356Z,14.07
2022-08-12T08:58:26.274Z,13.82
2022-08-12T09:01:18.566Z,12.60
2022-08-12T09:05:08.116Z,14.15
2022-08-12T09:07:58.972Z,13.90
2022-08-12T09:10:30.972Z,13.73
2022-08-12T09:19:46.821Z,12.50
2022-08-12T09:22:36.885Z,13.00
2022-08-12T09:25:26.588Z,13.40
2022-08-12T09:32:03.373Z,11.80
2022-08-12T09:34:43.868Z,11.18
2022-08-12T09:37:57.539Z,11.02
2022-08-12T09:41:01.280Z,12.57
2022-08-12T09:44:38.064Z,11.43
2022-08-12T09:47:17.806Z,10.30
2022-08-12T09:50:20.509Z,10.55
2022-08-12T09:53:15.141Z,8.15
2022-08-12T09:56:57.388Z,8.10
2022-08-12T09:59:12.234Z,7.57
2022-08-12T10:02:43.373Z,7.97
2022-08-12T10:06:19.392Z,7.07
2022-08-12T10:08:42.425Z,7.53
2022-08-12T10:12:10.526Z,7.30
2022-08-12T10:14:55.848Z,6.90
2022-08-12T10:18:06.058Z,6.95
2022-08-12T10:20:52.808Z,6.97
2022-08-12T10:23:46.140Z,7.35
2022-08-12T10:26:54.924Z,7.05
2022-08-12T10:30:38.144Z,7.18
2022-08-12T10:32:58.543Z,7.22
2022-08-12T10:35:46.715Z,8.25
2022-08-12T10:38:41.251Z,7.63
2022-08-12T10:41:58.100Z,7.78
2022-08-12T10:44:47.948Z,8.48
2022-08-12T10:48:16.026Z,8.32
2022-08-12T10:51:01.808Z,7.95
2022-08-12T10:53:52.458Z,8.15
2022-08-12T10:56:45.319Z,7.68
2022-08-12T11:00:29.596Z,7.80
2022-08-12T11:04:27.572Z,8.48
2022-08-12T11:07:09.011Z,8.75
2022-08-12T11:09:10.520Z,8.27
2022-08-12T11:12:35.404Z,8.85
2022-08-12T11:15:19.468Z,7.85
2022-08-12T11:18:11.700Z,7.97
2022-08-12T11:21:05.927Z,7.90
2022-08-12T11:23:53.979Z,8.35
2022-08-12T11:26:42.186Z,7.50
2022-08-12T11:30:01.959Z,7.43
2022-08-12T11:32:39.847Z,7.38
2022-08-12T11:35:28.095Z,6.72
2022-08-12T11:38:20.278Z,6.95
2022-08-12T11:41:08.563Z,6.75
2022-08-12T11:43:59.152Z,6.40
2022-08-12T11:46:51.441Z,7.07
2022-08-12T11:49:41.186Z,6.70
2022-08-12T11:52:53.931Z,6.60
2022-08-12T11:55:46.943Z,6.00
2022-08-12T12:01:05.621Z,6.00
2022-08-12T12:02:01.850Z,6.40
2022-08-12T12:04:53.968Z,6.05
2022-08-12T12:08:40.619Z,6.45
2022-08-12T12:10:51.443Z,6.47
2022-08-12T12:14:07.783Z,6.18
2022-08-12T12:16:48.194Z,6.10
2022-08-12T12:19:45.396Z,6.07
2022-08-12T12:22:36.044Z,5.88
2022-08-12T12:26:06.482Z,5.85
2022-08-12T12:28:37.897Z,6.07
2022-08-12T12:32:10.449Z,5.35
2022-08-12T12:34:35.518Z,5.53
2022-08-12T12:38:03.292Z,5.45
2022-08-12T12:40:39.711Z,5.40
2022-08-12T12:43:28.417Z,5.28
2022-08-12T12:46:25.229Z,5.38
2022-08-12T12:49:15.544Z,5.68
2022-08-12T12:52:19.862Z,5.35
2022-08-12T12:55:10.938Z,5.47
2022-08-12T12:58:04.852Z,5.55
2022-08-12T13:00:55.186Z,5.32
2022-08-12T13:03:49.378Z,5.53
2022-08-12T13:06:38.369Z,6.72
2022-08-12T13:09:26.773Z,6.70
2022-08-12T13:12:24.706Z,6.57
2022-08-12T13:15:43.583Z,6.93
2022-08-12T13:18:28.718Z,6.55
2022-08-12T13:21:33.064Z,6.22
2022-08-12T13:24:24.423Z,6.28
2022-08-12T13:27:20.806Z,5.95
2022-08-12T13:30:12.414Z,5.88
2022-08-12T13:33:01.756Z,5.95
2022-08-12T13:36:05.900Z,5.90
2022-08-12T13:38:58.733Z,5.80
2022-08-12T13:41:49.543Z,5.97
2022-08-12T13:44:37.670Z,5.70
2022-08-12T13:47:27.032Z,5.68
2022-08-12T13:50:17.956Z,5.80
2022-08-12T13:53:24.322Z,5.40
2022-08-12T13:56:14.518Z,5.80
2022-08-12T13:59:03.079Z,5.88
2022-08-12T14:01:56.800Z,5.88
2022-08-12T14:04:45.409Z,5.85
2022-08-12T14:08:01.739Z,6.03
2022-08-12T14:10:53.282Z,5.88
2022-08-12T14:14:03.596Z,5.85
2022-08-12T14:16:51.353Z,5.75
2022-08-12T14:20:01.065Z,5.80
2022-08-12T14:22:49.749Z,5.70
2022-08-12T14:25:43.360Z,5.60
2022-08-12T14:28:34.400Z,5.78
2022-08-12T14:31:27.932Z,6.18
2022-08-12T14:34:20.434Z,6.20
2022-08-12T14:37:56.541Z,5.90
2022-08-12T14:40:27.844Z,5.80
2022-08-12T14:43:17.880Z,5.88
2022-08-12T14:46:07.874Z,5.72
2022-08-12T14:48:56.530Z,6.22
2022-08-12T14:52:57.662Z,6.35
2022-08-12T14:58:02.116Z,6.20
2022-08-12T15:01:09.595Z,5.97
2022-08-12T15:04:00.526Z,6.85
2022-08-12T15:06:52.748Z,6.38
2022-08-12T15:09:41.197Z,6.47
2022-08-12T15:12:30.316Z,6.53
2022-08-12T15:15:20.100Z,6.68
2022-08-12T15:18:11.921Z,6.70
2022-08-12T15:21:05.497Z,6.65
2022-08-12T15:24:00.320Z,7.15
2022-08-12T15:26:48.411Z,6.90
2022-08-12T15:29:38.601Z,6.78
2022-08-12T15:32:32.049Z,6.88
2022-08-12T15:35:22.086Z,6.82
2022-08-12T15:38:14.764Z,6.97
2022-08-12T15:41:07.037Z,7.10
2022-08-12T15:44:36.995Z,6.38
2022-08-12T15:47:04.955Z,6.75
2022-08-12T15:49:59.759Z,6.93
2022-08-12T15:52:50.343Z,6.95
2022-08-12T15:55:46.130Z,6.65
2022-08-12T15:58:35.840Z,6.63
2022-08-12T16:01:23.924Z,6.22
2022-08-12T16:04:12.934Z,7.00
2022-08-12T16:07:05.884Z,6.80
2022-08-12T16:10:06.688Z,6.60
2022-08-12T16:12:59.005Z,6.70
2022-08-12T16:15:51.078Z,6.70
2022-08-12T16:18:51.897Z,6.53
2022-08-12T16:21:52.682Z,7.38
2022-08-12T16:24:47.068Z,7.60
2022-08-12T16:27:42.689Z,7.22
2022-08-12T16:30:34.172Z,6.55
2022-08-12T16:33:22.680Z,7.03
2022-08-12T16:36:13.468Z,7.35
2022-08-12T16:39:07.005Z,6.82
2022-08-12T16:41:56.938Z,7.22
2022-08-12T16:44:46.278Z,7.80
2022-08-12T16:47:58.942Z,6.63
2022-08-12T16:50:49.637Z,7.05
2022-08-12T16:53:44.192Z,6.82
2022-08-12T16:56:33.649Z,6.60
2022-08-12T16:59:31.137Z,6.43
2022-08-12T17:02:36.841Z,7.03
2022-08-12T17:05:30.969Z,6.57
2022-08-12T17:08:21.464Z,6.82
2022-08-12T17:11:17.885Z,6.85
2022-08-12T17:14:07.355Z,7.45
2022-08-12T17:16:56.019Z,6.55
2022-08-12T17:20:30.447Z,6.95
2022-08-12T17:22:56.432Z,6.30
2022-08-12T17:25:48.350Z,6.63
2022-08-12T17:28:37.002Z,6.32
2022-08-12T17:31:59.366Z,6.55
2022-08-12T17:34:52.040Z,6.53
2022-08-12T17:37:41.927Z,6.95
2022-08-12T17:40:35.608Z,7.32
2022-08-12T17:43:57.130Z,7.70
2022-08-12T17:46:33.109Z,7.78
2022-08-12T17:50:01.879Z,7.60
2022-08-12T17:52:33.387Z,7.85
2022-08-12T17:55:43.354Z,8.52
2022-08-12T17:58:37.672Z,8.27
2022-08-12T18:01:28.896Z,8.98
2022-08-12T18:04:22.934Z,8.38
2022-08-12T18:07:23.584Z,8.25
2022-08-12T18:10:14.201Z,8.73
2022-08-12T18:13:04.023Z,8.27
2022-08-12T18:16:05.466Z,9.23
2022-08-12T18:18:58.708Z,9.80
2022-08-12T18:22:01.831Z,9.90
2022-08-12T18:25:00.899Z,10.73
2022-08-12T18:28:15.080Z,11.38
2022-08-12T18:31:03.872Z,13.73
2022-08-12T18:33:52.698Z,14.90
2022-08-12T18:36:50.167Z,16.95
2022-08-12T18:39:58.156Z,16.83
2022-08-12T18:42:46.930Z,20.65
2022-08-12T18:45:57.076Z,22.55
2022-08-12T18:48:47.233Z,26.25
2022-08-12T18:51:49.091Z,31.27
2022-08-12T18:54:49.362Z,35.25
2022-08-12T18:58:05.827Z,38.05
2022-08-12T19:00:52.501Z,41.65
2022-08-12T19:03:40.639Z,51.03
2022-08-12T19:06:39.291Z,54.38
2022-08-12T19:09:39.033Z,61.72
2022-08-12T19:13:03.244Z,65.15
2022-08-12T19:15:57.503Z,67.80
2022-08-12T19:18:45.867Z,83.07
2022-08-12T19:21:37.147Z,90.18
2022-08-12T19:24:43.750Z,93.38
2022-08-12T19:27:36.218Z,107.80
2022-08-12T19:30:56.597Z,117.95
2022-08-12T19:34:06.407Z,126.72
2022-08-12T19:36:57.298Z,133.43
2022-08-12T19:40:07.820Z,153.48
2022-08-12T19:43:00.611Z,141.32
2022-08-12T19:45:51.363Z,153.40
2022-08-12T19:48:41.001Z,159.90
2022-08-12T19:51:33.186Z,161.07
2022-08-12T19:54:23.624Z,160.70
2022-08-12T19:57:18.764Z,159.05
2022-08-12T20:00:10.428Z,159.50
2022-08-12T20:03:00.879Z,157.00
2022-08-12T20:06:07.185Z,157.90
2022-08-12T20:08:57.136Z,148.18
2022-08-12T20:12:13.916Z,152.43
2022-08-12T20:14:56.833Z,152.95
2022-08-12T20:17:51.039Z,165.63
2022-08-12T20:20:39.446Z,150.55
2022-08-12T20:23:50.276Z,155.02
2022-08-12T20:26:41.796Z,146.95
2022-08-12T20:29:35.597Z,150.02
2022-08-12T20:32:37.508Z,148.18
2022-08-12T20:36:05.918Z,151.00
2022-08-12T20:38:45.970Z,153.75
2022-08-12T20:41:35.914Z,153.02
2022-08-12T20:44:24.486Z,150.30
2022-08-12T20:47:19.505Z,164.80
2022-08-12T20:50:09.995Z,167.27
2022-08-12T20:52:58.156Z,161.68
2022-08-12T20:55:56.435Z,160.30
2022-08-12T20:58:45.338Z,175.20
2022-08-12T21:01:46.111Z,169.05
2022-08-12T21:04:54.595Z,188.98
2022-08-12T21:07:51.749Z,180.70
2022-08-12T21:10:42.114Z,189.07
2022-08-12T21:13:39.298Z,194.80
2022-08-12T21:16:31.438Z,207.02
2022-08-12T21:19:24.553Z,200.32
2022-08-12T21:22:34.656Z,205.05
2022-08-12T21:25:25.428Z,210.63
2022-08-12T21:28:30.846Z,208.48
2022-08-12T21:32:39.537Z,215.02
2022-08-12T21:34:29.725Z,207.45
2022-08-12T21:37:27.369Z,207.60
2022-08-12T21:40:17.320Z,211.07
2022-08-12T21:43:05.417Z,209.57
2022-08-12T21:46:01.002Z,226.95
2022-08-12T21:48:56.750Z,226.30
2022-08-12T21:51:49.751Z,220.90
2022-08-12T21:54:40.883Z,228.85
2022-08-12T21:57:36.189Z,213.90
2022-08-12T22:00:33.096Z,223.95
2022-08-12T22:04:03.056Z,213.07
2022-08-12T22:06:53.501Z,210.95
2022-08-12T22:09:43.214Z,196.95
2022-08-12T22:12:33.895Z,201.02
2022-08-12T22:15:26.118Z,183.85
2022-08-12T22:18:14.153Z,186.13
2022-08-12T22:21:04.379Z,179.32
2022-08-12T22:24:05.222Z,171.85
2022-08-12T22:26:53.897Z,173.57
2022-08-12T22:30:01.217Z,169.35
2022-08-12T22:32:50.721Z,164.73
2022-08-12T22:35:56.458Z,169.60
2022-08-12T22:38:47.904Z,159.23
2022-08-12T22:41:57.862Z,172.70
2022-08-12T22:45:04.838Z,161.80
2022-08-12T22:47:56.058Z,148.20
2022-08-12T22:50:44.285Z,159.00
2022-08-12T22:53:36.325Z,156.60
2022-08-12T22:56:30.926Z,152.63
2022-08-12T22:59:21.769Z,149.95
2022-08-12T23:02:11.384Z,151.57
2022-08-12T23:04:59.640Z,149.30
2022-08-12T23:07:58.787Z,146.60
2022-08-12T23:10:48.381Z,140.40
2022-08-12T23:13:55.131Z,144.52
2022-08-12T23:16:45.192Z,146.45
2022-08-12T23:19:38.396Z,146.25
2022-08-12T23:23:05.500Z,144.13
2022-08-12T23:25:54.811Z,146.80
2022-08-12T23:29:01.710Z,141.43
2022-08-12T23:32:10.858Z,142.98
2022-08-12T23:35:02.581Z,139.38
2022-08-12T23:37:53.807Z,146.88
2022-08-12T23:40:42.108Z,142.60
2022-08-12T23:43:38.929Z,145.57
2022-08-12T23:46:28.824Z,145.32
2022-08-12T23:49:55.183Z,137.48
2022-08-12T23:52:28.586Z,146.23
2022-08-12T23:55:24.224Z,151.27
2022-08-12T23:58:23.169Z,143.30
